Time;durP1;ratioP1;P1;durP2;ratioP2;P2;SDS_P1;SDS_P2;PMS_P1;PMS_P2;Temp;Humidity;BMP_temperature;BMP_pressure;BME280_temperature;BME280_humidity;BME280_pressure;Samples;Min_cycle;Max_cycle;Signal;HPM_P1;HPM_P2
2021/10/07 00:01:10;;;;;;;;;2.00;2.00;;;;;11.46;71.06;101465.31;4572440;28;2731548;-81
2021/10/07 00:03:37;;;;;;;;;3.80;2.00;;;;;11.47;71.51;101463.50;4561642;28;2741952;-81
2021/10/07 00:06:05;;;;;;;;;1.80;1.00;;;;;11.42;71.33;101452.19;4557335;28;2724229;-82
2021/10/07 00:08:32;;;;;;;;;1.20;1.20;;;;;11.47;71.39;101458.16;4565239;28;2732561;-82
2021/10/07 00:11:00;;;;;;;;;2.00;2.00;;;;;11.45;71.66;101452.91;4564507;28;2724224;-81
2021/10/07 00:13:28;;;;;;;;;3.00;1.00;;;;;11.45;71.59;101452.91;4568104;28;2735718;-82
2021/10/07 00:15:56;;;;;;;;;2.00;1.00;;;;;11.52;71.44;101467.69;4571034;28;2729445;-82
2021/10/07 00:18:23;;;;;;;;;1.80;1.80;;;;;11.51;71.45;101465.94;4566372;28;2730537;-82
2021/10/07 00:20:51;;;;;;;;;4.80;2.00;;;;;11.56;71.42;101473.75;4575086;28;2746110;-81
2021/10/07 00:23:24;;;;;;;;;1.80;1.80;;;;;11.57;71.10;101470.13;4565866;28;2723275;-81
2021/10/07 00:25:51;;;;;;;;;3.80;3.00;;;;;11.58;70.98;101467.41;4577836;28;2749240;-81
2021/10/07 00:28:19;;;;;;;;;3.60;2.00;;;;;11.55;70.50;101472.00;4567469;28;2748214;-81
2021/10/07 00:30:47;;;;;;;;;2.80;2.00;;;;;11.55;70.32;101466.69;4566284;28;2748210;-81
2021/10/07 00:33:25;;;;;;;;;4.60;2.00;;;;;11.55;70.30;101480.00;4566995;28;2739201;-81
2021/10/07 00:39:05;;;;;;;;;1.60;1.60;;;;;11.45;70.44;101484.00;4512801;28;2734681;-81
2021/10/07 00:41:35;;;;;;;;;2.40;2.00;;;;;11.45;70.92;101479.53;4510891;28;2744032;-81
2021/10/07 00:44:07;;;;;;;;;2.80;1.00;;;;;11.34;70.97;101463.19;4513216;28;2721108;-81
2021/10/07 00:46:59;;;;;;;;;3.60;1.00;;;;;11.35;70.58;101465.75;4513172;28;2733604;-81
2021/10/07 00:49:29;;;;;;;;;2.00;1.00;;;;;11.44;70.67;101480.47;4496882;28;2720125;-81
2021/10/07 00:51:57;;;;;;;;;3.40;1.00;;;;;11.43;70.66;101484.09;4512810;28;2729518;-80
2021/10/07 00:54:26;;;;;;;;;4.40;1.40;;;;;11.39;70.93;101480.69;4511752;28;2733619;-82
2021/10/07 00:56:55;;;;;;;;;3.80;1.00;;;;;11.39;70.78;101483.34;4512636;28;2735723;-82
2021/10/07 00:59:24;;;;;;;;;2.60;2.00;;;;;11.38;70.78;101486.06;4511988;28;2739873;-82
2021/10/07 01:01:51;;;;;;;;;2.60;1.00;;;;;11.32;71.03;101467.72;4511707;28;2737769;-82
2021/10/07 01:04:19;;;;;;;;;1.60;1.60;;;;;11.32;71.15;101476.56;4510790;28;2752413;-80
2021/10/07 01:06:46;;;;;;;;;3.40;2.20;;;;;11.31;71.21;101477.47;4511130;28;2754480;-81
2021/10/07 01:09:16;;;;;;;;;2.00;2.00;;;;;11.30;70.91;101469.56;4511116;28;2741950;-81
2021/10/07 01:11:44;;;;;;;;;1.80;1.00;;;;;11.26;70.99;101471.50;4512147;28;2727342;-81
2021/10/07 01:14:11;;;;;;;;;1.20;1.00;;;;;11.25;71.02;101469.78;4512508;28;2720106;-81
2021/10/07 01:16:39;;;;;;;;;1.00;1.00;;;;;11.21;71.21;101471.69;4544090;28;2725286;-81
2021/10/07 01:19:06;;;;;;;;;1.40;1.00;;;;;11.25;71.21;101480.41;4558201;28;2727365;-81
2021/10/07 01:21:34;;;;;;;;;2.60;0.20;;;;;11.18;70.87;101468.31;4559787;28;2729433;-81
2021/10/07 01:24:01;;;;;;;;;1.80;1.60;;;;;11.14;71.36;101467.56;4549605;28;2736756;-81
2021/10/07 01:26:29;;;;;;;;;3.40;1.60;;;;;11.18;71.47;101476.28;4549732;28;2722535;-81
2021/10/07 01:28:56;;;;;;;;;2.00;2.00;;;;;11.16;71.15;101476.38;4548573;28;2739941;-81
2021/10/07 01:31:24;;;;;;;;;1.00;1.00;;;;;11.06;71.64;101464.38;4567195;28;2721488;-81
2021/10/07 01:33:51;;;;;;;;;1.40;1.00;;;;;11.13;71.38;101479.16;4564208;28;2737083;-81
2021/10/07 01:36:19;;;;;;;;;2.80;1.00;;;;;11.11;71.77;101477.50;4567464;28;2728419;-81
2021/10/07 01:38:46;;;;;;;;;3.00;2.00;;;;;11.11;71.43;101477.50;4548606;28;2724267;-81
2021/10/07 01:41:14;;;;;;;;;1.60;1.60;;;;;11.09;71.14;101485.53;4567208;28;2727366;-81
2021/10/07 01:43:43;;;;;;;;;2.60;1.00;;;;;11.08;71.36;101482.94;4567339;28;2727710;-81
2021/10/07 01:46:11;;;;;;;;;1.00;1.00;;;;;11.05;71.10;101468.81;4567455;28;2729442;-81
2021/10/07 01:48:38;;;;;;;;;2.20;2.20;;;;;10.99;71.08;101473.56;4566804;28;2742994;-82
2021/10/07 01:51:06;;;;;;;;;2.00;2.00;;;;;10.95;70.99;101475.47;4566462;28;2744028;-82
2021/10/07 01:53:33;;;;;;;;;1.00;1.00;;;;;10.97;71.06;101484.25;4566389;28;2736763;-82
2021/10/07 01:56:01;;;;;;;;;2.00;1.20;;;;;10.90;71.24;101474.78;4566971;28;2726672;-82
2021/10/07 01:58:29;;;;;;;;;1.80;0.60;;;;;10.90;71.21;101476.59;4567018;28;2731955;-82
2021/10/07 02:00:56;;;;;;;;;1.40;1.00;;;;;10.86;71.20;101479.41;4566867;28;2725350;-82
2021/10/07 02:03:24;;;;;;;;;2.80;1.00;;;;;10.76;71.60;101467.41;4566354;28;2731885;-82
2021/10/07 02:05:51;;;;;;;;;4.00;1.80;;;;;10.81;71.74;101481.38;4565817;28;2734002;-82
2021/10/07 02:08:19;;;;;;;;;1.80;1.00;;;;;10.81;71.91;101472.53;4566520;28;2727394;-82
2021/10/07 02:10:46;;;;;;;;;1.00;1.00;;;;;10.72;71.50;101452.50;4565777;28;2731536;-82
2021/10/07 02:13:14;;;;;;;;;1.60;1.00;;;;;10.76;71.71;101472.72;4566262;28;2726323;-82
2021/10/07 02:15:41;;;;;;;;;4.40;2.20;;;;;10.78;72.04;101475.31;4565714;28;2754781;-82
2021/10/07 02:18:09;;;;;;;;;2.20;1.00;;;;;10.76;71.25;101469.19;4565917;28;2732577;-82
2021/10/07 02:20:37;;;;;;;;;1.00;1.00;;;;;10.74;71.14;101471.06;4566194;28;2727370;-82
2021/10/07 02:23:05;;;;;;;;;1.00;1.00;;;;;10.67;71.06;101463.34;4567307;28;2725258;-82
2021/10/07 02:25:32;;;;;;;;;2.00;2.00;;;;;10.64;71.78;101466.09;4566503;28;2739849;-82
2021/10/07 02:28:00;;;;;;;;;1.20;1.20;;;;;10.67;71.97;101463.34;4566478;28;2733659;-82
2021/10/07 02:30:28;;;;;;;;;1.80;1.00;;;;;10.61;72.28;101460.91;4566685;28;2727438;-82
2021/10/07 02:32:55;;;;;;;;;1.80;1.00;;;;;10.62;72.47;101464.47;4556112;28;2725274;-82
2021/10/07 02:35:23;;;;;;;;;3.00;2.00;;;;;10.55;72.21;101455.84;4564695;28;2751335;-81
2021/10/07 02:37:50;;;;;;;;;2.00;2.00;;;;;10.59;72.43;101465.44;4550936;28;2731544;-82
2021/10/07 02:40:18;;;;;;;;;3.00;1.80;;;;;10.55;73.06;101457.66;4564510;28;2735714;-82
2021/10/07 02:42:46;;;;;;;;;5.60;3.00;;;;;10.55;73.01;101462.97;4564644;28;2740895;-81
2021/10/07 02:45:17;;;;;;;;;2.80;2.00;;;;;10.54;72.49;101459.44;4566045;28;2732538;-81
2021/10/07 02:47:46;;;;;;;;;5.60;2.00;;;;;10.55;72.88;101471.81;4565434;28;2741929;-81
2021/10/07 02:50:15;;;;;;;;;5.00;2.00;;;;;10.51;72.67;101459.56;4564155;28;2745089;-80
2021/10/07 02:52:43;;;;;;;;;6.40;2.80;;;;;10.57;72.27;101466.44;4565182;28;2752353;-81
2021/10/07 02:55:10;;;;;;;;;5.00;4.00;;;;;10.56;72.19;101476.22;4547652;28;2752364;-81
2021/10/07 02:57:41;;;;;;;;;4.60;3.00;;;;;10.53;71.50;101477.19;4565409;28;2753773;-81
2021/10/07 03:00:10;;;;;;;;;3.00;2.40;;;;;10.44;71.44;101463.41;4565185;28;2749264;-81
2021/10/07 03:02:37;;;;;;;;;5.00;2.00;;;;;10.43;71.66;101467.88;4564855;28;2744040;-81
2021/10/07 03:05:05;;;;;;;;;2.60;2.40;;;;;10.45;71.95;101479.28;4565574;28;2736712;-81
2021/10/07 03:07:34;;;;;;;;;3.40;2.00;;;;;10.42;71.90;101481.19;4565049;28;2747155;-81
2021/10/07 03:10:04;;;;;;;;;2.00;2.00;;;;;10.39;71.79;101476.88;4566386;28;2727338;-81
2021/10/07 03:12:32;;;;;;;;;3.00;2.40;;;;;10.38;72.19;101480.47;4564802;28;2730501;-82
2021/10/07 03:14:59;;;;;;;;;4.80;4.20;;;;;10.36;71.89;101480.53;4565312;28;2746521;-81
2021/10/07 03:17:27;;;;;;;;;3.00;2.60;;;;;10.25;72.01;101456.13;4565686;28;2731517;-81
2021/10/07 03:19:54;;;;;;;;;4.20;3.00;;;;;10.30;72.56;101477.19;4564393;28;2746138;-81
2021/10/07 03:22:22;;;;;;;;;5.00;3.60;;;;;10.32;72.39;101478.03;4564674;28;2753402;-81
2021/10/07 03:24:51;;;;;;;;;9.33;3.50;;;;;10.31;72.57;101476.28;4563614;28;2764871;-81
2021/10/07 03:27:19;;;;;;;;;6.00;6.00;;;;;10.30;72.27;101485.19;4586191;28;2750297;-81
2021/10/07 03:29:46;;;;;;;;;3.80;3.80;;;;;10.25;72.20;101476.53;4564992;28;2746079;-81
2021/10/07 03:32:14;;;;;;;;;7.00;3.80;;;;;10.29;72.24;101481.66;4551684;28;2749220;-81
2021/10/07 03:34:39;;;;;;;;;7.67;3.00;;;;;10.28;72.42;101484.38;4540511;28;2750268;-82
2021/10/07 03:37:06;;;;;;;;;4.33;4.33;;;;;10.15;72.01;101463.59;4596232;28;2751735;-81
2021/10/07 03:39:33;;;;;;;;;4.80;3.20;;;;;10.19;72.50;101472.31;4580460;28;2750258;-82
2021/10/07 03:42:01;;;;;;;;;4.20;4.20;;;;;10.21;72.04;101480.25;4576801;28;2754769;-82
2021/10/07 03:44:28;;;;;;;;;5.80;3.00;;;;;10.23;72.00;101486.34;4583195;28;2737800;-82
2021/10/07 03:46:56;;;;;;;;;4.00;3.00;;;;;10.17;72.04;101487.44;4569963;28;2751394;-82
2021/10/07 03:49:24;;;;;;;;;5.00;3.00;;;;;10.19;72.10;101494.44;4563168;28;2744039;-82
2021/10/07 03:51:51;;;;;;;;;3.60;2.60;;;;;10.10;72.01;101480.63;4546790;28;2740902;-81
2021/10/07 03:54:19;;;;;;;;;4.80;3.40;;;;;10.15;72.57;101489.31;4564617;28;2743473;-82
2021/10/07 03:56:46;;;;;;;;;5.20;3.80;;;;;10.11;71.91;101487.69;4564127;28;2754468;-82
2021/10/07 03:59:12;;;;;;;;;4.33;4.33;;;;;10.13;72.61;101492.03;4540020;28;2749272;-82
2021/10/07 04:01:38;;;;;;;;;3.00;2.00;;;;;10.05;72.41;101488.78;4588748;28;2739857;-81
2021/10/07 04:04:05;;;;;;;;;4.00;4.00;;;;;10.13;72.43;101504.44;4566361;28;2750629;-82
2021/10/07 04:06:33;;;;;;;;;3.80;3.00;;;;;10.12;72.43;101508.88;4567469;28;2754440;-81
2021/10/07 04:09:00;;;;;;;;;7.40;2.00;;;;;10.09;72.86;101494.84;4566477;28;2746131;-82
2021/10/07 04:11:28;;;;;;;;;5.00;3.40;;;;;10.12;72.81;101498.25;4567409;28;2752384;-81
2021/10/07 04:13:55;;;;;;;;;4.00;3.00;;;;;10.10;72.85;101497.44;4567215;28;2749240;-81
2021/10/07 04:16:24;;;;;;;;;4.60;3.00;;;;;10.15;72.66;101507.91;4567082;28;2753407;-81
2021/10/07 04:18:51;;;;;;;;;3.40;2.80;;;;;10.17;73.22;101506.06;4568097;28;2735675;-81
2021/10/07 04:21:19;;;;;;;;;2.60;2.60;;;;;10.11;72.85;101493.00;4567076;28;2748222;-81
2021/10/07 04:23:46;;;;;;;;;2.00;2.00;;;;;10.18;73.58;101505.13;4567489;28;2747133;-82
2021/10/07 04:26:14;;;;;;;;;3.40;2.00;;;;;10.13;73.36;101493.81;4567760;28;2738811;-81
2021/10/07 04:28:41;;;;;;;;;2.60;2.60;;;;;10.18;73.36;101502.47;4567479;28;2744003;-81
2021/10/07 04:31:09;;;;;;;;;2.20;2.20;;;;;10.19;72.96;101504.22;4566641;28;2744055;-81
2021/10/07 04:33:36;;;;;;;;;4.40;3.00;;;;;10.11;73.18;101498.31;4565938;28;2747120;-81
2021/10/07 04:36:04;;;;;;;;;3.60;3.00;;;;;10.17;72.79;101504.25;4567565;28;2741943;-81
2021/10/07 04:38:31;;;;;;;;;3.00;3.00;;;;;10.17;73.03;101506.06;4566576;28;2736748;-81
2021/10/07 04:40:59;;;;;;;;;6.60;4.00;;;;;10.13;73.00;101504.44;4566569;28;2746106;-81
2021/10/07 04:43:25;;;;;;;;;6.67;5.00;;;;;10.09;72.72;101489.53;4540874;28;2746233;-81
2021/10/07 04:45:51;;;;;;;;;9.00;9.00;;;;;10.09;72.85;101498.38;4587906;28;2739853;-81
2021/10/07 04:48:16;;;;;;;;;16.50;13.50;;;;;10.05;73.10;101491.44;4562535;28;2812811;-81
2021/10/07 04:50:42;;;;;;;;;11.00;10.00;;;;;10.10;72.82;101494.78;4554183;28;2786679;-81
2021/10/07 04:53:08;;;;;;;;;13.25;11.50;;;;;10.09;72.97;101500.16;4588525;28;1833699;-81
2021/10/07 04:55:35;;;;;;;;;17.00;13.67;;;;;10.07;73.33;101502.03;4537611;28;2814192;-81
2021/10/07 04:58:00;;;;;;;;;17.00;15.50;;;;;9.96;72.87;101483.81;4544754;28;2814893;-81
2021/10/07 05:00:27;;;;;;;;;14.00;14.00;;;;;10.00;72.60;101493.41;4574141;28;2803401;-81
2021/10/07 05:02:53;;;;;;;;;14.50;11.00;;;;;9.96;72.67;101497.09;4525239;28;2787736;-81
2021/10/07 05:05:19;;;;;;;;;13.00;11.00;;;;;9.88;72.81;101486.78;4560634;28;3512767;-82
2021/10/07 05:07:45;;;;;;;;;12.00;10.00;;;;;9.95;72.87;101506.00;4561219;28;2791931;-82
2021/10/07 05:10:12;;;;;;;;;9.20;9.20;;;;;9.97;73.19;101512.97;4568818;28;2758632;-82
2021/10/07 05:12:40;;;;;;;;;8.60;7.20;;;;;9.97;73.11;101518.28;4569631;28;2737762;-82
2021/10/07 05:15:09;;;;;;;;;8.60;8.40;;;;;9.96;73.46;101523.66;4547939;28;2738896;-82
2021/10/07 05:17:37;;;;;;;;;5.00;4.60;;;;;9.96;73.13;101516.59;4548332;28;2749199;-81
2021/10/07 05:20:07;;;;;;;;;7.67;5.33;;;;;9.96;73.50;101521.00;4505668;28;2750258;-82
2021/10/07 05:22:35;;;;;;;;;7.20;4.80;;;;;9.96;73.49;101528.97;4570489;28;2734649;-82
2021/10/07 05:25:03;;;;;;;;;4.80;4.00;;;;;9.96;73.48;101523.66;4547869;28;2747168;-82
2021/10/07 05:27:31;;;;;;;;;6.40;4.00;;;;;9.84;73.65;101506.41;4547883;28;2741948;-82
2021/10/07 05:29:58;;;;;;;;;8.20;4.80;;;;;9.96;73.61;101528.97;4531427;28;2746127;-81
2021/10/07 05:32:26;;;;;;;;;8.40;6.00;;;;;9.97;73.65;101528.06;4547639;28;2751334;-82
2021/10/07 05:34:53;;;;;;;;;5.20;5.20;;;;;9.97;73.58;101538.69;4548610;28;2746115;-80
2021/10/07 05:37:21;;;;;;;;;6.60;4.60;;;;;9.95;73.80;101527.28;4548741;28;2740939;-81
2021/10/07 05:39:46;;;;;;;;;5.00;3.00;;;;;9.97;73.63;101547.53;4523322;28;2754480;-81
2021/10/07 05:42:12;;;;;;;;;5.00;3.00;;;;;9.97;73.81;101538.69;4568764;28;2750673;-81
2021/10/07 05:44:40;;;;;;;;;4.40;2.60;;;;;9.97;74.28;101541.34;4547530;28;2735683;-82
2021/10/07 05:47:08;;;;;;;;;5.00;3.40;;;;;9.98;74.10;101543.09;4548658;28;2751308;-81
2021/10/07 05:49:35;;;;;;;;;5.00;4.00;;;;;10.00;73.87;101541.22;4548367;28;2754452;-82
2021/10/07 05:52:03;;;;;;;;;5.20;4.20;;;;;9.90;73.79;101522.09;4547942;28;2754452;-81
2021/10/07 05:54:31;;;;;;;;;5.60;3.20;;;;;9.98;74.21;101537.78;4547983;28;2749256;-81
2021/10/07 05:56:58;;;;;;;;;7.20;4.00;;;;;10.03;74.02;101543.78;4548522;28;2746095;-81
2021/10/07 05:59:26;;;;;;;;;4.80;3.00;;;;;10.05;73.90;101543.72;4547774;28;2746107;-78
2021/10/07 06:01:54;;;;;;;;;2.00;2.00;;;;;10.04;74.04;101542.84;4547637;28;2742986;-78
2021/10/07 06:04:19;;;;;;;;;5.67;3.00;;;;;10.05;73.61;101547.25;4522366;28;2754573;-78
2021/10/07 06:06:45;;;;;;;;;6.33;3.67;;;;;10.07;73.35;101542.72;4568408;28;2748175;-78
2021/10/07 06:09:13;;;;;;;;;4.00;3.00;;;;;10.08;73.77;101547.13;4545468;28;2739868;-78
2021/10/07 06:11:39;;;;;;;;;4.00;3.67;;;;;10.09;73.33;101551.53;4522555;28;2753451;-77
2021/10/07 06:14:06;;;;;;;;;4.00;2.00;;;;;10.08;73.61;101546.28;4568190;28;2736739;-78
2021/10/07 06:16:38;;;;;;;;;5.00;3.00;;;;;10.11;73.66;101554.13;4569364;28;2754452;-78
2021/10/07 06:19:15;;;;;;;;;2.40;2.40;;;;;10.12;73.73;101551.41;4530175;28;2733599;-78
2021/10/07 06:21:42;;;;;;;;;7.00;4.00;;;;;10.14;73.89;101557.53;4547112;28;2746099;-79
2021/10/07 06:24:10;;;;;;;;;9.00;6.60;;;;;10.19;73.99;101554.72;4545853;28;2742336;-79
2021/10/07 06:26:38;;;;;;;;;4.20;4.20;;;;;10.25;73.79;101554.47;4544612;28;2745072;-79
2021/10/07 06:29:06;;;;;;;;;5.80;4.60;;;;;10.26;74.17;101550.91;4547289;28;2754429;-79
2021/10/07 06:31:34;;;;;;;;;4.20;3.00;;;;;10.31;73.77;101551.56;4556486;28;2733624;-79
2021/10/07 06:34:02;;;;;;;;;4.00;3.00;;;;;10.36;73.79;101556.72;4550941;28;2742313;-79
2021/10/07 06:36:30;;;;;;;;;6.80;3.40;;;;;10.37;74.00;101550.50;4546772;28;2748535;-80
2021/10/07 06:38:55;;;;;;;;;6.67;6.00;;;;;10.41;73.55;101545.94;4519707;28;2746162;-80
2021/10/07 06:41:22;;;;;;;;;9.00;6.00;;;;;10.48;73.73;101555.41;4566811;28;2742998;-80
2021/10/07 06:43:50;;;;;;;;;7.40;7.40;;;;;10.53;73.26;101559.63;4545654;28;2734681;-80
2021/10/07 06:46:17;;;;;;;;;5.60;4.40;;;;;10.54;73.51;101557.81;4545616;28;2737781;-80
2021/10/07 06:48:43;;;;;;;;;7.67;5.00;;;;;10.65;73.72;101565.41;4521259;28;2745468;-80
2021/10/07 06:51:09;;;;;;;;;3.67;3.00;;;;;10.75;73.57;101568.56;4564296;28;2752381;-79
2021/10/07 06:53:38;;;;;;;;;5.00;5.00;;;;;10.90;73.28;101572.38;4547002;28;2743030;-86
2021/10/07 06:56:06;;;;;;;;;3.40;3.40;;;;;11.00;73.00;101561.31;4545764;28;2748237;-86
2021/10/07 06:58:34;;;;;;;;;5.20;3.80;;;;;11.05;73.04;101542.50;4528979;28;2743389;-86
2021/10/07 07:01:01;;;;;;;;;4.40;3.20;;;;;11.33;73.51;101557.28;4545625;28;2748264;-86
2021/10/07 07:03:29;;;;;;;;;5.80;4.00;;;;;11.54;73.07;101558.16;4545155;28;2744032;-85
2021/10/07 07:05:56;;;;;;;;;3.60;3.00;;;;;11.72;72.86;101541.38;4546517;28;2754451;-86
2021/10/07 07:08:24;;;;;;;;;5.60;4.40;;;;;12.18;72.45;101569.59;4530633;28;2750325;-87
2021/10/07 07:10:53;;;;;;;;;8.60;4.00;;;;;12.32;71.70;101550.31;4528496;28;2746140;-87
2021/10/07 07:13:20;;;;;;;;;7.20;6.00;;;;;12.55;71.43;101555.38;4526438;28;2738859;-86
2021/10/07 07:15:46;;;;;;;;;12.00;6.00;;;;;12.93;70.76;101563.34;4502408;28;2773296;-86
2021/10/07 07:18:12;;;;;;;;;7.33;7.00;;;;;13.21;70.34;101562.00;4548900;28;2735735;-85
2021/10/07 07:20:39;;;;;;;;;7.60;6.60;;;;;13.54;70.09;101577.28;4532663;28;2739902;-85
2021/10/07 07:23:09;;;;;;;;;8.67;7.00;;;;;13.64;69.22;101556.28;4522300;28;2746542;-86
2021/10/07 07:25:35;;;;;;;;;5.00;5.00;;;;;13.74;69.27;101559.34;4559196;28;2750403;-86
2021/10/07 07:28:02;;;;;;;;;7.25;6.00;;;;;13.80;69.12;101573.22;4584632;28;2739928;-87
2021/10/07 07:30:27;;;;;;;;;7.67;5.33;;;;;13.80;68.80;101567.03;4542155;28;3458631;-86
2021/10/07 07:32:54;;;;;;;;;8.00;6.00;;;;;13.78;68.90;101582.28;4584945;28;2738831;-88
2021/10/07 07:35:21;;;;;;;;;4.80;4.00;;;;;13.76;68.93;101586.84;4548730;28;2746155;-87
2021/10/07 07:37:49;;;;;;;;;4.80;3.80;;;;;13.61;69.11;101568.00;4567042;28;2748221;-86
2021/10/07 07:40:16;;;;;;;;;7.00;4.80;;;;;13.64;69.06;101580.34;4566310;28;2746095;-86
2021/10/07 07:42:44;;;;;;;;;5.40;4.40;;;;;13.64;69.34;101588.34;4549179;28;2746135;-88
2021/10/07 07:45:09;;;;;;;;;5.00;4.00;;;;;13.59;69.33;101583.22;4541270;28;2749690;-86
2021/10/07 07:47:41;;;;;;;;;8.67;4.00;;;;;13.72;69.39;101598.63;4572196;28;2748648;-87
2021/10/07 07:50:09;;;;;;;;;5.00;4.00;;;;;13.76;69.51;101602.88;4550167;28;2744093;-86
2021/10/07 07:52:37;;;;;;;;;7.60;3.80;;;;;13.84;69.76;101600.69;4548758;28;2737774;-88
2021/10/07 07:55:05;;;;;;;;;5.33;4.00;;;;;13.84;69.56;101584.66;4540822;28;3457927;-87
2021/10/07 07:57:32;;;;;;;;;6.40;3.80;;;;;14.07;69.64;101602.13;4588714;28;2746515;-88
2021/10/07 07:59:58;;;;;;;;;7.33;5.00;;;;;14.19;69.30;101607.78;4523853;28;2747196;-86
2021/10/07 08:02:25;;;;;;;;;4.25;4.00;;;;;14.11;69.09;101576.97;4569326;28;2742996;-87
2021/10/07 08:04:54;;;;;;;;;7.00;4.00;;;;;14.13;68.51;101560.81;4569975;28;2747192;-87
2021/10/07 08:07:22;;;;;;;;;2.80;2.20;;;;;14.32;68.38;101600.78;4548925;28;2750321;-87
2021/10/07 08:09:49;;;;;;;;;5.20;4.20;;;;;14.40;68.45;101606.59;4566297;28;2743006;-87
2021/10/07 08:12:17;;;;;;;;;3.80;2.80;;;;;14.26;68.44;101588.63;4567875;28;2746091;-88
2021/10/07 08:14:47;;;;;;;;;3.00;2.20;;;;;14.31;68.71;101586.56;4548673;28;2744019;-83
2021/10/07 08:17:15;;;;;;;;;6.80;3.00;;;;;14.58;68.49;101612.75;4549414;28;2752345;-87
2021/10/07 08:19:43;;;;;;;;;3.40;2.40;;;;;14.55;68.20;101587.97;4567542;28;2740954;-87
2021/10/07 08:22:10;;;;;;;;;5.00;1.60;;;;;14.82;68.37;101609.69;4554144;28;2746128;-87
2021/10/07 08:24:38;;;;;;;;;3.00;0.60;;;;;14.88;68.30;101608.47;4573039;28;2730478;-88
2021/10/07 08:27:05;;;;;;;;;4.40;3.60;;;;;15.00;68.20;101615.81;4572899;28;2754424;-87
2021/10/07 08:29:33;;;;;;;;;4.60;3.00;;;;;15.09;68.32;101614.41;4573115;28;2744063;-86
2021/10/07 08:32:01;;;;;;;;;3.00;2.67;;;;;15.13;68.37;101619.50;4573212;28;2746138;-86
2021/10/07 08:34:29;;;;;;;;;4.20;3.00;;;;;15.16;68.31;101623.81;4594223;28;2738831;-87
2021/10/07 08:36:57;;;;;;;;;3.80;2.80;;;;;15.01;68.41;101604.16;4554980;28;2746186;-87
2021/10/07 08:39:26;;;;;;;;;1.80;1.80;;;;;15.16;68.16;101631.88;4573535;28;2741983;-86
2021/10/07 08:41:53;;;;;;;;;2.40;1.40;;;;;15.15;68.13;101628.34;4551333;28;2744111;-87
2021/10/07 08:44:20;;;;;;;;;2.40;2.00;;;;;15.12;68.27;101617.81;4567561;28;2733645;-86
2021/10/07 08:46:54;;;;;;;;;3.33;2.00;;;;;15.09;68.42;101603.72;4565923;28;2742966;-87
2021/10/07 08:49:23;;;;;;;;;6.40;3.80;;;;;15.22;68.18;101622.63;4589039;28;2744055;-87
2021/10/07 08:51:49;;;;;;;;;3.00;2.00;;;;;15.31;68.02;101632.81;4541402;28;2753437;-88
2021/10/07 08:54:18;;;;;;;;;4.60;2.20;;;;;15.26;68.20;101619.66;4570517;28;2747142;-86
2021/10/07 08:56:46;;;;;;;;;2.50;2.00;;;;;15.33;68.01;101621.06;4571085;28;2751363;-87
2021/10/07 08:59:14;;;;;;;;;1.80;1.40;;;;;15.39;68.23;101614.47;4588489;28;2739909;-87
2021/10/07 09:01:48;;;;;;;;;3.00;3.00;;;;;15.27;67.53;101583.88;4541764;28;2754476;-87
2021/10/07 09:04:26;;;;;;;;;2.33;1.33;;;;;15.53;67.62;101622.56;4589103;28;2737826;-87
2021/10/07 09:07:04;;;;;;;;;3.00;1.00;;;;;15.57;67.35;101619.69;4572878;28;2725375;-87
2021/10/07 09:09:34;;;;;;;;;2.60;2.00;;;;;15.54;67.38;101602.81;4566660;28;2748202;-88
2021/10/07 09:12:05;;;;;;;;;2.80;1.80;;;;;15.71;67.57;101623.25;4567259;28;2741928;-87
2021/10/07 09:14:33;;;;;;;;;2.67;2.00;;;;;15.82;66.85;101627.16;4541352;28;2754491;-86
2021/10/07 09:17:04;;;;;;;;;2.40;2.00;;;;;15.92;66.84;101638.19;4589808;28;2729483;-87
2021/10/07 09:19:36;;;;;;;;;2.80;1.00;;;;;15.95;66.06;101632.66;4550514;28;2723250;-87
2021/10/07 09:22:18;;;;;;;;;1.60;0.60;;;;;16.12;65.95;101645.00;4568391;28;2727713;-87
2021/10/07 09:24:48;;;;;;;;;2.00;1.40;;;;;16.07;65.85;101623.84;4565289;28;2753411;-87
2021/10/07 09:27:25;;;;;;;;;3.20;1.60;;;;;16.25;65.60;101646.00;4549811;28;2739854;-86
2021/10/07 09:30:08;;;;;;;;;2.67;2.00;;;;;16.14;65.63;101611.75;4523069;28;2751351;-87
2021/10/07 09:32:44;;;;;;;;;5.67;1.50;;;;;16.38;65.30;101628.16;4588496;28;2751310;-87
2021/10/07 09:35:15;;;;;;;;;2.00;1.20;;;;;16.44;65.13;101623.38;4588545;28;2735675;-87
2021/10/07 09:37:47;;;;;;;;;2.00;2.00;;;;;16.59;64.92;101627.78;4550492;28;2731560;-87
2021/10/07 09:40:17;;;;;;;;;2.33;2.33;;;;;16.71;64.39;101637.72;4567374;28;2748178;-86
2021/10/07 09:42:59;;;;;;;;;1.80;1.40;;;;;16.70;64.25;101621.69;4587956;28;2726324;-86
2021/10/07 09:45:29;;;;;;;;;2.00;2.00;;;;;16.84;64.40;101643.16;4550767;28;2730515;-86
2021/10/07 09:48:02;;;;;;;;;3.00;1.60;;;;;16.88;64.15;101642.03;4567219;28;2740943;-86
2021/10/07 09:50:41;;;;;;;;;2.00;2.00;;;;;16.85;64.00;101623.41;4568036;28;2733619;-87
2021/10/07 09:53:16;;;;;;;;;4.00;1.00;;;;;16.94;63.99;101619.28;4567424;28;2731542;-87
2021/10/07 09:55:48;;;;;;;;;1.80;1.00;;;;;17.08;64.16;101634.50;4568600;28;2722197;-87
2021/10/07 09:58:17;;;;;;;;;2.00;2.00;;;;;17.08;63.76;101629.97;4567215;28;2744019;-87
2021/10/07 10:00:54;;;;;;;;;2.60;0.00;;;;;17.13;64.30;101631.50;4567674;28;2731933;-86
2021/10/07 10:03:24;;;;;;;;;1.83;1.83;;;;;17.19;63.67;101629.28;4567016;28;2739896;-87
2021/10/07 10:05:51;;;;;;;;;8.33;2.00;;;;;17.28;63.21;101635.00;4546383;28;2760713;-90
2021/10/07 10:08:20;;;;;;;;;1.00;1.00;;;;;17.29;63.49;101612.53;4573860;28;2711757;-88
2021/10/07 10:10:51;;;;;;;;;1.60;1.60;;;;;17.46;63.34;101622.16;4567778;28;2728383;-88
2021/10/07 10:13:17;;;;;;;;;2.67;2.00;;;;;17.51;62.94;101602.06;4546751;28;3464808;-88
2021/10/07 10:15:43;;;;;;;;;3.00;1.00;;;;;17.82;63.13;101618.78;4586038;28;2738808;-83
2021/10/07 10:18:15;;;;;;;;;1.20;1.20;;;;;18.13;62.49;101615.81;4566825;28;2722238;-82
2021/10/07 10:20:52;;;;;;;;;1.20;1.20;;;;;18.45;61.33;101621.59;4571306;28;2725285;-83
2021/10/07 10:23:24;;;;;;;;;2.00;2.00;;;;;18.78;61.46;101621.00;4569912;28;2750299;-82
2021/10/07 10:26:10;;;;;;;;;4.33;3.00;;;;;19.22;61.11;101626.78;4565461;28;2754452;-80
2021/10/07 10:28:38;;;;;;;;;2.40;2.00;;;;;19.74;59.42;101621.06;4591665;28;2744020;-80
2021/10/07 10:31:08;;;;;;;;;6.67;1.33;;;;;20.29;58.64;101621.31;4521743;28;3481513;-78
2021/10/07 10:33:39;;;;;;;;;2.00;1.50;;;;;20.65;56.63;101625.63;4573260;28;2731583;-79
2021/10/07 10:36:24;;;;;;;;;1.00;0.00;;;;;20.77;55.50;101623.78;4588181;28;2725278;-79
2021/10/07 10:39:25;;;;;;;;;2.80;1.00;;;;;20.76;55.88;101624.75;4565662;28;2731540;-79
2021/10/07 10:41:57;;;;;;;;;1.20;0.00;;;;;20.80;55.06;101622.69;4510963;28;2725319;-78
2021/10/07 10:44:27;;;;;;;;;0.20;0.20;;;;;20.83;54.52;101623.25;4511451;28;2729857;-80
2021/10/07 10:47:06;;;;;;;;;0.80;0.00;;;;;21.19;54.43;101618.53;4528215;28;2729529;-81
2021/10/07 10:49:46;;;;;;;;;0.00;0.00;;;;;21.55;54.26;101621.84;4528954;28;2725313;-81
2021/10/07 10:52:19;;;;;;;;;3.00;1.00;;;;;21.74;53.02;101614.84;4528165;28;2731572;-81
2021/10/07 10:54:54;;;;;;;;;5.00;1.00;;;;;21.76;52.51;101614.72;4528434;28;2729892;-82
2021/10/07 10:57:28;;;;;;;;;1.00;1.00;;;;;21.72;52.25;101606.84;4547508;28;2727378;-80
2021/10/07 11:00:17;;;;;;;;;1.80;1.00;;;;;21.60;51.76;101607.06;4513616;28;2732160;-80
2021/10/07 11:02:47;;;;;;;;;2.60;1.40;;;;;21.48;51.86;101609.78;4526475;28;2739893;-81
2021/10/07 11:05:20;;;;;;;;;0.80;0.80;;;;;21.52;51.85;101607.69;4511149;28;2729553;-82
2021/10/07 11:08:14;;;;;;;;;6.00;1.20;;;;;21.55;51.82;101611.00;4509437;28;2732551;-81
2021/10/07 11:10:44;;;;;;;;;0.60;0.60;;;;;21.53;51.66;101607.59;4510478;28;2731563;-82
2021/10/07 11:13:16;;;;;;;;;1.00;1.00;;;;;21.55;51.38;101612.88;4511417;28;2733663;-81
2021/10/07 11:15:49;;;;;;;;;1.40;1.00;;;;;21.64;51.27;101609.34;4527345;28;2725290;-80
2021/10/07 11:18:17;;;;;;;;;1.60;1.00;;;;;21.88;51.55;101611.78;4537231;28;2721104;-80
2021/10/07 11:20:44;;;;;;;;;3.00;1.00;;;;;22.24;51.07;101612.25;4565306;28;2733650;-79